Arcata Airport Arcata,Eureka US
ICAO: KACV
IATA: ACV
Category: Medium
Scheduled Services: Yes

Elevation: 221 ft
TransAlt. 18000 ft.

Airport Communications:
ASOS:118.525
SEATTLE CNTR:124.85
COAST GUARD AIR OPS:34.5
OAKLAND RDO:122.6
CTAF/UNICOM:123

KACV Zoom In..

If you have problems with the map follow the link
https://www.worldairports.se/pages/airport.php?
ICAO=KACV

Runways:

(A) RW 01 length 4501 ft width 150 ft
---- / hdg 13

(B) RW 14 length 6046 ft width 150 ft
---- / hdg 136

(C) RW 19 length 4501 ft width 150 ft
---- / hdg 193

(D) RW 32 length 6046 ft width 150 ft
ILS 109.50 / hdg 316

Location; KACV
Day. 22 / Time. 15.53 Zulu
* Altimeter: 30.13
* Temperature: 01° c. 33.8°f.
* Wind from: 090° Speed 03 kn.
Dewpoint: -01° c.
Visibility: 10 Statute Miles.
Clouds: Clear (automated report).

KACV 221553Z AUTO 09003KT 10SM CLR 01/M01 A3013 RMK AO2 SLP211 T00061011


Wind From 090°
Speed 03 kn.

 
 
jpsmedia.com for Web Design worldairports.se 2019   terms of use